Aérodrome :
LOGIN :

S'inscrire | Disclaimer

   EN    FR    IT 

 










Légende :    VFR   VFR Marginal   IFR   IFR Intensif   IFR Très Intensif
Visi : 
Plafond : 
>= 8 km
>= 3000ft
5 à 8 km
1000 à 3000 ft
1500m à 5 km
500 à 1000 ft
800 à 1500m
200 à 500 ft
< 800m
< 200 ft
Symboles :   Orages  Brouillard  Fortes neiges  Fortes précipitations  Vent > 20 kt
SIGMETs :   Divers  Orages  Givrage  Turbulence  Onde Orograph.  Cendres Volcan.







- Altitude de l'aérodrome : 16 ft
- Code IATA : SDR


LEXJ - Santander Cantabria

DERNIER METAR :
  • 231600Z 28008KT 9999 FEW018 OVC025 12/08 Q1017

METARs EXPIRÉS :
  • 231530Z 29009KT 250V310 9999 FEW018 OVC024 12/09 Q1017
  • 231500Z 28009KT 8000 FEW016 OVC024 12/09 Q1017
  • 231430Z 29010KT 8000 FEW016 OVC022 12/09 Q1016
  • 231400Z 28008KT 7000 OVC022 13/09 Q1017
  • 231330Z 27006KT 6000 OVC020 13/09 Q1017
  • 231300Z 25005KT 220V280 6000 OVC018 12/09 Q1017

TAF TAF LEXJ
Valide du 23 à 15h jusqu'au 24 à 15h UTC


231400Z 2315/2415 28009KT 6000 SCT010 BKN018 TX13/2415Z TN07/2407Z
TEMPO 2315/2317 4000 -DZ BR BKN012
TEMPO 2317/2409 3000 -RADZ BR BKN008
PROB40
TEMPO 2319/2402 34012KT 1500 RA BKN004
Pas de NOTAMs connus pour ce terrain.
1 SIGMET publié pour la FIR Madrid (LECM) :
 
Orages noyés dans la masse
LECM SIGMET 7 VALID 231500/231700 LEVA
LECM MADRID FIR/UIR EMBD TS OBS AT 1446Z WI N3720 W00530 - N3610 W00530 - N3620 W00220 - N3930 W00130 - N3930 W00350 TOP FL320 STNR NC=



MET'MAP, la Météo Aéronautique d'un coup d'oeil ! - Copyright ORBIFLY Décembre 2007 - Disclaimer

ORBIFLY MET'MAP TEAM :

Programmation & Développement : Alexandra Zaïnal
Conception & Développement : Baudouin d'Aumeries
Co-Programmation & Développement : Marc-Olivier Méhu
Soutien technique & logistique : Manuel Goepfert

Contact : metmap@orbifly.com




SOURCES & CREDITS :

   NOAA